Time;durP1;ratioP1;P1;durP2;ratioP2;P2;SDS_P1;SDS_P2;PMS_P1;PMS_P2;Temp;Humidity;BMP_temperature;BMP_pressure;BME280_temperature;BME280_humidity;BME280_pressure;Samples;Min_cycle;Max_cycle;Signal;HPM_P1;HPM_P2
2021/12/18 00:02:06;;;;;;;;;58.00;45.75;;;;;11.32;74.15;103269.09;5082931;28;62051;-78
2021/12/18 00:04:32;;;;;;;;;52.00;40.75;;;;;11.30;73.99;103275.94;5084397;28;61904;-78
2021/12/18 00:06:57;;;;;;;;;54.75;40.00;;;;;11.31;73.87;103277.75;5083871;28;62087;-78
2021/12/18 00:09:25;;;;;;;;;48.00;35.50;;;;;11.30;73.94;103274.22;5083434;28;61896;-78
2021/12/18 00:11:51;;;;;;;;;50.00;39.25;;;;;11.29;74.13;103260.94;5082574;28;61756;-78
2021/12/18 00:14:17;;;;;;;;;50.25;41.00;;;;;11.24;74.20;103264.09;5082290;28;61920;-78
2021/12/18 00:16:42;;;;;;;;;43.50;38.00;;;;;11.26;73.95;103273.03;5082965;28;61756;-78
2021/12/18 00:19:07;;;;;;;;;57.00;41.00;;;;;11.26;73.84;103269.50;5081870;28;63889;-78
2021/12/18 00:21:36;;;;;;;;;47.50;41.25;;;;;11.23;73.73;103264.00;5083751;28;61797;-78
2021/12/18 00:24:06;;;;;;;;;51.00;40.50;;;;;11.23;73.81;103264.91;5083654;27;61822;-78
2021/12/18 00:26:32;;;;;;;;;59.50;41.75;;;;;11.23;73.79;103256.13;5083711;27;61961;-78
2021/12/18 00:28:57;;;;;;;;;61.25;45.75;;;;;11.16;73.80;103251.13;5082638;28;62868;-78
2021/12/18 00:31:23;;;;;;;;;62.00;43.75;;;;;11.19;73.67;103248.78;5083884;28;62056;-78
2021/12/18 00:33:48;;;;;;;;;58.50;41.75;;;;;11.20;73.72;103254.16;5083762;28;61793;-78
2021/12/18 00:36:14;;;;;;;;;48.75;41.00;;;;;11.19;73.60;103247.03;5083833;28;61900;-78
2021/12/18 00:38:41;;;;;;;;;54.50;43.25;;;;;11.20;73.72;103250.59;5081793;28;62790;-78
2021/12/18 00:43:37;;;;;;;;;56.25;42.00;;;;;11.17;73.60;103250.34;5083253;28;62029;-78
2021/12/18 00:46:04;;;;;;;;;53.50;40.75;;;;;11.14;73.90;103243.13;5083649;28;62034;-78
2021/12/18 00:48:30;;;;;;;;;63.50;39.50;;;;;11.13;73.43;103249.16;5081644;28;64807;-78
2021/12/18 00:50:56;;;;;;;;;42.50;36.50;;;;;11.09;73.89;103243.53;5081840;28;62171;-78
2021/12/18 00:53:21;;;;;;;;;38.75;32.50;;;;;11.11;73.62;103252.47;5082015;28;61996;-78
2021/12/18 00:55:50;;;;;;;;;48.00;35.25;;;;;11.11;73.67;103244.59;5082067;28;62075;-78
2021/12/18 00:58:15;;;;;;;;;38.50;32.00;;;;;11.09;73.33;103246.16;5071909;28;61797;-78
2021/12/18 01:00:42;;;;;;;;;42.25;31.00;;;;;11.07;73.18;103238.16;5061418;28;61794;-78
2021/12/18 01:03:16;;;;;;;;;48.25;42.00;;;;;11.07;73.34;103251.28;5062983;28;61862;-78
2021/12/18 01:05:42;;;;;;;;;50.75;40.25;;;;;11.04;73.42;103244.09;5063059;28;61662;-78
2021/12/18 01:08:08;;;;;;;;;41.00;36.00;;;;;11.02;73.50;103248.28;5062010;28;62893;-78
2021/12/18 01:10:56;;;;;;;;;50.25;39.50;;;;;11.01;73.31;103249.09;5062985;28;61837;-78
2021/12/18 01:13:27;;;;;;;;;51.00;38.25;;;;;10.99;73.07;103247.13;5062782;28;61704;-78
2021/12/18 01:15:55;;;;;;;;;42.25;33.75;;;;;10.98;73.28;103253.19;5061624;28;62224;-78
2021/12/18 01:23:50;;;;;;;;;47.00;36.25;;;;;10.95;72.97;103250.31;5062891;28;61978;-78
2021/12/18 01:26:17;;;;;;;;;38.75;31.00;;;;;10.95;72.85;103258.19;5062531;28;61805;-78
2021/12/18 01:28:42;;;;;;;;;43.50;35.00;;;;;10.90;72.92;103249.91;5061688;28;61939;-78
2021/12/18 01:31:09;;;;;;;;;40.50;28.50;;;;;10.91;72.97;103256.09;5062335;28;61823;-77
2021/12/18 01:33:34;;;;;;;;;34.25;28.00;;;;;10.85;72.90;103259.13;5061067;28;61938;-78
2021/12/18 01:36:01;;;;;;;;;40.00;31.75;;;;;10.84;73.17;103252.97;5061232;28;61733;-78
2021/12/18 01:38:29;;;;;;;;;40.50;36.00;;;;;10.83;73.23;103250.19;5061691;28;61784;-78
2021/12/18 01:40:55;;;;;;;;;36.00;27.25;;;;;10.81;72.89;103259.66;5062675;28;61930;-78
2021/12/18 01:46:32;;;;;;;;;35.50;26.75;;;;;10.81;72.69;103267.53;5062529;28;61792;-78
2021/12/18 01:51:25;;;;;;;;;38.25;32.75;;;;;10.77;73.19;103268.97;5062010;28;61797;-78
2021/12/18 01:53:54;;;;;;;;;32.25;27.75;;;;;10.77;72.54;103271.59;5062161;28;61971;-78
2021/12/18 01:56:21;;;;;;;;;42.50;36.50;;;;;10.76;73.04;103267.16;5062157;28;61806;-78
2021/12/18 01:58:47;;;;;;;;;35.50;30.25;;;;;10.74;72.79;103260.84;5076069;27;61724;-78
2021/12/18 02:01:15;;;;;;;;;35.50;28.50;;;;;10.73;72.57;103268.59;5082355;27;61733;-78
2021/12/18 02:03:40;;;;;;;;;36.25;35.25;;;;;10.68;73.26;103260.34;5080941;28;61855;-78
2021/12/18 02:06:06;;;;;;;;;33.25;31.25;;;;;10.67;73.01;103261.16;5082597;28;61853;-78
2021/12/18 02:08:34;;;;;;;;;37.50;27.75;;;;;10.65;72.73;103270.59;5080398;28;64023;-78
2021/12/18 02:14:23;;;;;;;;;39.75;33.25;;;;;10.62;73.12;103267.69;5081830;27;61835;-78
2021/12/18 02:21:51;;;;;;;;;34.50;28.00;;;;;10.56;73.25;103265.50;5082237;28;62067;-78
2021/12/18 02:24:17;;;;;;;;;40.50;32.25;;;;;10.61;73.18;103263.25;5082056;28;62086;-78
2021/12/18 02:26:42;;;;;;;;;50.25;30.75;;;;;10.60;72.40;103270.22;5080845;28;62374;-78
2021/12/18 02:29:13;;;;;;;;;35.00;29.50;;;;;10.58;72.86;103269.19;5081240;28;62115;-78
2021/12/18 02:31:38;;;;;;;;;39.25;34.75;;;;;10.57;72.72;103277.81;5080628;27;61850;-78
2021/12/18 02:34:04;;;;;;;;;43.00;36.00;;;;;10.58;73.04;103273.47;5080795;28;61925;-78
2021/12/18 02:36:29;;;;;;;;;41.25;34.50;;;;;10.55;72.66;103263.66;5080697;28;62000;-78
2021/12/18 02:39:07;;;;;;;;;48.25;34.75;;;;;10.60;73.10;103269.28;5080093;28;64047;-78
2021/12/18 02:41:38;;;;;;;;;44.00;33.50;;;;;10.59;72.71;103265.75;5080538;28;61742;-78
2021/12/18 02:44:07;;;;;;;;;41.25;27.25;;;;;10.62;72.61;103267.69;5081393;28;62173;-78
2021/12/18 02:46:33;;;;;;;;;40.00;35.00;;;;;10.65;73.03;103270.59;5081794;28;61942;-78
2021/12/18 02:49:15;;;;;;;;;45.00;32.50;;;;;10.71;72.65;103276.38;5081385;27;62055;-78
2021/12/18 02:51:41;;;;;;;;;36.25;27.00;;;;;10.77;72.51;103261.09;5082029;28;61873;-78
2021/12/18 02:54:07;;;;;;;;;40.25;29.25;;;;;10.81;71.78;103265.81;5081726;28;61967;-78
2021/12/18 02:56:33;;;;;;;;;43.00;30.75;;;;;10.84;71.70;103268.72;5079988;28;62049;-78
2021/12/18 02:59:07;;;;;;;;;45.25;30.25;;;;;10.86;72.01;103271.44;5080698;27;61849;-78
2021/12/18 03:01:35;;;;;;;;;33.50;28.50;;;;;10.89;71.71;103270.81;5082225;28;61837;-78
2021/12/18 03:04:11;;;;;;;;;32.50;30.00;;;;;10.93;71.76;103272.91;5083839;28;61905;-78
2021/12/18 03:06:41;;;;;;;;;36.00;31.75;;;;;10.93;71.16;103263.31;5085308;28;61957;-78
2021/12/18 03:27:42;;;;;;;;;30.75;24.75;;;;;11.16;70.82;103267.84;5084986;27;61848;-78
2021/12/18 03:30:08;;;;;;;;;34.25;27.50;;;;;11.19;70.75;103269.78;5083775;28;61964;-78
2021/12/18 03:32:33;;;;;;;;;35.25;25.75;;;;;11.22;70.51;103262.16;5084613;28;62023;-78
2021/12/18 03:34:59;;;;;;;;;35.00;28.25;;;;;11.26;70.66;103262.50;5085000;27;61876;-78
2021/12/18 03:37:24;;;;;;;;;36.50;27.75;;;;;11.27;70.61;103252.94;5084822;28;61851;-78
2021/12/18 03:39:50;;;;;;;;;26.25;19.00;;;;;11.29;70.87;103258.31;5084081;27;61789;-78
2021/12/18 03:42:16;;;;;;;;;28.25;25.75;;;;;11.29;71.04;103255.66;5084762;28;62080;-78
2021/12/18 03:44:41;;;;;;;;;26.50;24.00;;;;;11.35;71.01;103253.53;5083951;28;62149;-78
2021/12/18 03:47:07;;;;;;;;;27.75;23.50;;;;;11.37;71.17;103255.50;5083626;28;61976;-78
2021/12/18 03:49:33;;;;;;;;;30.25;22.25;;;;;11.42;71.05;103251.56;5082303;28;64960;-78
2021/12/18 03:51:59;;;;;;;;;27.25;21.25;;;;;11.43;70.75;103249.81;5083152;28;61950;-78
2021/12/18 03:54:25;;;;;;;;;31.00;25.50;;;;;11.41;71.05;103239.19;5083125;28;61834;-78
2021/12/18 03:56:51;;;;;;;;;34.50;27.00;;;;;11.40;71.23;103237.34;5084171;28;62115;-78
2021/12/18 03:59:16;;;;;;;;;29.75;23.50;;;;;11.44;71.10;103242.06;5062471;28;63894;-78
2021/12/18 04:01:42;;;;;;;;;34.50;25.50;;;;;11.48;71.34;103234.41;5064028;28;61819;-78
2021/12/18 04:04:08;;;;;;;;;38.00;24.25;;;;;11.51;71.21;103232.03;5064033;28;62180;-78
2021/12/18 04:06:33;;;;;;;;;30.75;23.00;;;;;11.52;71.03;103232.16;5096700;27;62031;-78
2021/12/18 04:08:59;;;;;;;;;35.75;32.25;;;;;11.53;71.09;103230.47;5063224;28;61936;-78
2021/12/18 04:11:25;;;;;;;;;39.00;30.25;;;;;11.55;71.23;103245.56;5063727;28;61901;-78
2021/12/18 04:13:50;;;;;;;;;37.75;34.00;;;;;11.59;71.36;103239.75;5062705;28;61942;-78
2021/12/18 04:16:17;;;;;;;;;40.50;31.75;;;;;11.64;71.30;103240.13;5062761;28;61942;-78
2021/12/18 04:18:42;;;;;;;;;35.00;29.75;;;;;11.61;71.23;103247.75;5061766;28;64336;-78
2021/12/18 04:21:08;;;;;;;;;34.75;27.75;;;;;11.62;71.26;103236.44;5063847;28;61855;-78
2021/12/18 04:23:33;;;;;;;;;37.50;25.75;;;;;11.65;71.39;103242.88;5062080;28;61837;-78
2021/12/18 04:25:59;;;;;;;;;37.75;28.75;;;;;11.69;71.39;103241.38;5062247;28;62151;-78
2021/12/18 04:28:26;;;;;;;;;31.25;29.50;;;;;11.69;71.06;103238.75;5063000;28;61932;-78
2021/12/18 04:30:51;;;;;;;;;33.75;27.75;;;;;11.66;71.53;103241.16;5061673;28;62025;-78
2021/12/18 04:33:17;;;;;;;;;35.25;27.75;;;;;11.70;71.42;103243.25;5063587;28;61719;-78
2021/12/18 04:35:42;;;;;;;;;39.50;28.75;;;;;11.73;71.65;103247.81;5063628;28;62048;-78
2021/12/18 04:38:08;;;;;;;;;31.75;31.25;;;;;11.74;71.72;103242.69;5062976;28;61764;-78
2021/12/18 04:40:34;;;;;;;;;41.75;30.00;;;;;11.77;71.64;103242.00;5063471;28;62296;-78
2021/12/18 04:43:01;;;;;;;;;34.00;29.50;;;;;11.73;71.71;103245.19;5063218;28;62001;-78
2021/12/18 04:45:28;;;;;;;;;41.00;30.75;;;;;11.78;71.88;103243.81;5063231;28;62289;-78
2021/12/18 04:47:54;;;;;;;;;32.00;28.50;;;;;11.84;71.94;103244.31;5061323;28;63734;-78
2021/12/18 04:50:20;;;;;;;;;30.50;29.50;;;;;11.85;71.56;103239.19;5095640;27;61933;-78
2021/12/18 04:52:46;;;;;;;;;32.25;25.50;;;;;11.87;71.52;103239.31;5061621;28;61995;-78
2021/12/18 04:55:11;;;;;;;;;37.00;27.75;;;;;11.86;71.53;103238.38;5061759;28;61780;-78
2021/12/18 04:57:37;;;;;;;;;37.25;28.25;;;;;11.81;71.59;103251.97;5065729;27;64958;-78
2021/12/18 05:00:05;;;;;;;;;37.25;29.25;;;;;11.82;71.77;103245.91;5083013;27;62177;-78
2021/12/18 05:02:38;;;;;;;;;32.00;23.75;;;;;11.88;71.83;103251.69;5083612;28;61693;-78
2021/12/18 05:05:05;;;;;;;;;33.00;26.75;;;;;11.93;72.07;103246.78;5082035;28;61868;-78
2021/12/18 05:07:31;;;;;;;;;39.00;31.00;;;;;11.95;71.60;103254.00;5082738;28;61802;-78
2021/12/18 05:09:56;;;;;;;;;37.75;27.00;;;;;11.92;71.80;103245.88;5082876;28;62081;-78
2021/12/18 05:12:22;;;;;;;;;34.00;25.75;;;;;11.96;71.92;103250.59;5081784;28;62040;-78
2021/12/18 05:14:47;;;;;;;;;32.75;25.75;;;;;12.01;71.65;103251.84;5082816;28;61988;-78
2021/12/18 05:17:13;;;;;;;;;45.50;32.50;;;;;12.03;72.06;103250.25;5082667;28;62751;-78
2021/12/18 05:19:38;;;;;;;;;30.50;29.50;;;;;12.04;71.65;103248.56;5083108;28;61967;-78
2021/12/18 05:22:04;;;;;;;;;44.00;24.50;;;;;12.03;71.39;103247.63;5081601;28;62557;-79
2021/12/18 05:24:30;;;;;;;;;34.25;25.50;;;;;11.92;71.24;103253.78;5080873;28;62014;-78
2021/12/18 05:26:56;;;;;;;;;31.25;24.50;;;;;11.95;71.64;103255.72;5080378;28;63685;-78
2021/12/18 05:29:26;;;;;;;;;44.00;31.25;;;;;11.85;71.51;103252.34;5082594;27;61827;-78
2021/12/18 05:31:53;;;;;;;;;39.75;30.25;;;;;11.91;71.74;103243.09;5081361;28;61896;-78
2021/12/18 05:34:23;;;;;;;;;38.25;31.50;;;;;11.89;71.54;103256.19;5081641;28;61750;-78
2021/12/18 05:39:36;;;;;;;;;29.75;25.00;;;;;11.87;71.25;103249.84;5059802;28;62117;-78
2021/12/18 05:42:02;;;;;;;;;41.25;30.75;;;;;11.86;71.35;103250.63;5042679;28;62017;-78
2021/12/18 05:44:28;;;;;;;;;38.25;30.00;;;;;11.79;71.20;103250.94;5042732;28;62117;-78
2021/12/18 05:46:53;;;;;;;;;30.25;27.00;;;;;11.83;71.29;103258.28;5059334;28;64658;-78
2021/12/18 05:49:19;;;;;;;;;34.25;26.25;;;;;11.78;70.94;103246.44;5059556;28;61853;-78
2021/12/18 05:51:45;;;;;;;;;33.25;21.50;;;;;11.76;71.07;103238.47;5060101;28;61849;-78
2021/12/18 05:54:13;;;;;;;;;29.25;25.25;;;;;11.80;71.15;103236.97;5059662;28;61943;-78
2021/12/18 05:56:39;;;;;;;;;36.00;28.75;;;;;11.82;70.76;103238.00;5042238;28;63535;-78
2021/12/18 05:59:04;;;;;;;;;31.50;25.00;;;;;11.87;70.96;103244.56;5041757;28;61954;-78
2021/12/18 06:01:30;;;;;;;;;33.75;28.50;;;;;11.92;70.90;103239.69;5022856;28;61915;-78
2021/12/18 06:03:56;;;;;;;;;31.25;25.75;;;;;11.90;70.32;103236.03;5022798;28;61996;-78
2021/12/18 06:06:22;;;;;;;;;30.00;25.00;;;;;11.88;70.48;103246.44;5022442;28;64759;-78
2021/12/18 06:08:49;;;;;;;;;35.75;26.25;;;;;11.81;70.53;103241.44;5039573;28;62049;-78
2021/12/18 06:11:16;;;;;;;;;28.75;25.00;;;;;11.90;70.91;103234.31;5039254;28;61947;-78
2021/12/18 06:13:51;;;;;;;;;26.00;22.75;;;;;11.89;70.44;103234.19;5039317;28;61944;-78
2021/12/18 06:16:19;;;;;;;;;33.50;25.00;;;;;11.94;70.44;103240.75;5045993;28;62750;-78
2021/12/18 06:18:48;;;;;;;;;32.50;27.50;;;;;11.97;70.10;103241.88;5061964;28;61988;-78
2021/12/18 06:21:15;;;;;;;;;31.25;26.25;;;;;11.95;70.45;103237.28;5061953;28;61755;-78
2021/12/18 06:23:47;;;;;;;;;29.25;24.50;;;;;11.96;70.66;103233.88;5060564;28;61963;-78
2021/12/18 06:26:13;;;;;;;;;30.00;24.00;;;;;11.91;70.23;103236.16;5060817;28;61708;-78
2021/12/18 06:28:38;;;;;;;;;37.00;25.50;;;;;11.89;70.40;103234.19;5061720;28;62013;-78
2021/12/18 06:31:04;;;;;;;;;34.50;23.25;;;;;11.79;70.04;103233.44;5061598;28;62029;-78
2021/12/18 06:33:30;;;;;;;;;25.75;24.75;;;;;11.76;70.46;103241.09;5060745;28;62407;-78
2021/12/18 06:35:55;;;;;;;;;33.75;25.75;;;;;11.77;70.59;103242.91;5062463;28;61769;-78
2021/12/18 06:38:21;;;;;;;;;26.00;21.50;;;;;11.79;70.35;103249.22;5063837;28;62223;-77
2021/12/18 06:40:47;;;;;;;;;28.25;24.50;;;;;11.79;70.49;103246.59;5065328;28;62026;-78
2021/12/18 06:43:12;;;;;;;;;29.50;24.50;;;;;11.69;70.00;103243.09;5065348;28;61815;-78
2021/12/18 06:45:38;;;;;;;;;33.00;26.25;;;;;11.66;70.45;103254.31;5063243;28;64281;-78
2021/12/18 06:48:04;;;;;;;;;26.00;19.75;;;;;11.56;70.23;103249.09;5065087;28;62187;-78
2021/12/18 06:50:30;;;;;;;;;24.50;20.25;;;;;11.45;70.71;103253.50;5065225;28;61993;-79
2021/12/18 06:52:56;;;;;;;;;32.25;26.25;;;;;11.40;70.88;103249.59;5065130;28;61785;-78
2021/12/18 06:55:21;;;;;;;;;32.50;24.75;;;;;11.25;70.99;103257.16;5064118;28;61765;-78
2021/12/18 06:57:47;;;;;;;;;33.75;24.50;;;;;11.21;71.04;103253.34;5070940;28;61899;-78
2021/12/18 07:00:14;;;;;;;;;27.50;22.50;;;;;11.13;71.47;103248.25;5084888;28;61894;-79
2021/12/18 07:02:40;;;;;;;;;31.25;26.50;;;;;11.13;71.50;103257.06;5085664;28;61949;-79
2021/12/18 07:05:07;;;;;;;;;38.25;25.50;;;;;11.09;71.85;103254.97;5084813;27;62501;-79
2021/12/18 07:07:32;;;;;;;;;22.50;21.00;;;;;11.09;71.79;103259.31;5083577;28;62042;-79
2021/12/18 07:09:58;;;;;;;;;34.25;24.50;;;;;11.07;71.44;103259.19;5085221;27;61821;-79
2021/12/18 07:12:23;;;;;;;;;35.00;27.50;;;;;11.03;71.98;103259.72;5085372;28;62147;-78
2021/12/18 07:14:48;;;;;;;;;31.25;24.00;;;;;11.01;71.94;103258.66;5084307;28;62677;-79
2021/12/18 07:17:14;;;;;;;;;30.25;25.25;;;;;10.99;72.35;103265.50;5085012;28;61963;-79
2021/12/18 07:19:40;;;;;;;;;29.75;24.25;;;;;10.96;71.97;103268.81;5085222;28;61916;-74
2021/12/18 07:22:06;;;;;;;;;32.75;20.25;;;;;10.96;72.59;103268.81;5085135;28;61802;-79
2021/12/18 07:24:31;;;;;;;;;30.25;23.00;;;;;10.94;72.18;103269.47;5084063;28;62801;-78
2021/12/18 07:26:57;;;;;;;;;28.25;22.50;;;;;10.92;72.27;103274.59;5084777;28;62174;-79
2021/12/18 07:29:23;;;;;;;;;27.75;22.50;;;;;10.90;72.46;103277.91;5084385;28;61949;-78
2021/12/18 07:31:50;;;;;;;;;28.75;26.75;;;;;10.89;72.41;103281.34;5085386;27;61893;-78
2021/12/18 07:34:15;;;;;;;;;30.50;24.00;;;;;10.86;72.29;103289.84;5082610;28;64908;-77
2021/12/18 07:36:41;;;;;;;;;39.00;20.75;;;;;10.85;72.55;103288.94;5084627;28;61880;-77
2021/12/18 07:39:07;;;;;;;;;5.50;5.25;;;;;10.83;72.48;103287.88;5084196;28;62026;-76
2021/12/18 07:41:32;;;;;;;;;30.00;28.25;;;;;10.81;72.75;103285.94;5084889;27;61909;-78
2021/12/18 07:43:58;;;;;;;;;31.50;28.00;;;;;10.79;72.81;103292.75;5083623;27;62024;-78
2021/12/18 07:46:23;;;;;;;;;41.00;26.50;;;;;10.80;72.38;103285.03;5084364;27;61842;-77
2021/12/18 07:48:49;;;;;;;;;28.00;21.25;;;;;10.77;72.85;103276.88;5082611;28;61912;-77
2021/12/18 07:51:14;;;;;;;;;46.25;22.50;;;;;10.80;72.90;103285.03;5083184;28;61972;-76
2021/12/18 07:53:40;;;;;;;;;28.25;24.50;;;;;10.79;72.61;103277.00;5083911;27;62134;-77
2021/12/18 07:56:09;;;;;;;;;37.00;32.25;;;;;10.79;72.34;103285.78;5084350;27;61714;-77
2021/12/18 07:58:35;;;;;;;;;36.25;23.00;;;;;10.78;72.62;103283.97;5079303;28;62032;-77
2021/12/18 08:01:01;;;;;;;;;24.25;22.00;;;;;10.82;72.68;103282.53;5064260;28;61948;-76
2021/12/18 08:03:27;;;;;;;;;32.25;28.25;;;;;10.81;72.54;103278.97;5063043;28;61804;-75
2021/12/18 08:05:52;;;;;;;;;29.25;23.00;;;;;10.82;72.36;103283.44;5063945;28;61874;-76
2021/12/18 08:08:18;;;;;;;;;34.75;31.50;;;;;10.83;72.40;103285.25;5064168;28;62148;-75
2021/12/18 08:10:43;;;;;;;;;34.50;29.25;;;;;10.82;72.24;103277.28;5063867;28;61686;-76
2021/12/18 08:13:09;;;;;;;;;31.50;26.25;;;;;10.85;72.25;103275.81;5063126;28;63067;-76
2021/12/18 08:15:34;;;;;;;;;28.00;24.25;;;;;10.87;72.24;103280.28;5063451;28;61807;-75
2021/12/18 08:18:04;;;;;;;;;33.00;29.75;;;;;10.87;72.22;103277.66;5064037;28;61787;-76
2021/12/18 08:20:29;;;;;;;;;35.75;31.75;;;;;10.88;72.31;103277.75;5063480;28;62166;-74
2021/12/18 08:22:55;;;;;;;;;37.25;27.00;;;;;10.91;72.11;103279.75;5063023;28;61813;-74
2021/12/18 08:25:20;;;;;;;;;26.75;24.25;;;;;10.90;71.92;103278.81;5063359;28;62324;-74
2021/12/18 08:27:46;;;;;;;;;26.75;23.25;;;;;10.91;71.97;103285.91;5062229;28;61813;-74
2021/12/18 08:30:11;;;;;;;;;28.75;22.00;;;;;10.94;72.15;103287.88;5063337;28;62448;-73
2021/12/18 08:32:40;;;;;;;;;39.50;24.25;;;;;10.97;71.86;103288.16;5062826;28;62988;-75
2021/12/18 08:35:05;;;;;;;;;29.75;24.75;;;;;10.95;71.60;103287.09;5072894;28;62033;-75
2021/12/18 08:37:31;;;;;;;;;34.00;24.75;;;;;10.99;71.63;103295.34;5083362;28;62049;-75
2021/12/18 08:39:56;;;;;;;;;31.50;25.00;;;;;11.01;71.50;103293.78;5083624;27;61927;-75
2021/12/18 08:42:22;;;;;;;;;30.75;24.75;;;;;10.88;71.73;103287.34;5083434;27;61887;-75
2021/12/18 08:44:47;;;;;;;;;34.50;23.25;;;;;10.94;71.47;103294.03;5082958;27;61932;-75
2021/12/18 08:47:14;;;;;;;;;35.00;26.50;;;;;10.98;71.54;103293.50;5083751;27;61763;-75
2021/12/18 08:49:40;;;;;;;;;27.25;22.50;;;;;11.02;71.65;103299.94;5083499;27;61721;-75
2021/12/18 08:52:05;;;;;;;;;27.25;25.25;;;;;11.05;71.37;103300.19;5082972;28;61778;-75
2021/12/18 08:54:31;;;;;;;;;26.25;24.50;;;;;11.08;71.24;103295.19;5083523;27;61812;-75
2021/12/18 08:56:56;;;;;;;;;30.50;23.00;;;;;11.12;70.98;103298.97;5099095;27;61795;-75
2021/12/18 08:59:22;;;;;;;;;31.00;24.00;;;;;11.09;71.09;103299.66;5062581;27;62059;-77
2021/12/18 09:01:47;;;;;;;;;26.00;22.25;;;;;11.05;70.58;103289.66;5074918;28;61681;-74
2021/12/18 09:04:15;;;;;;;;;34.75;26.00;;;;;11.10;70.81;103293.63;5082376;28;61897;-75
2021/12/18 09:06:41;;;;;;;;;25.50;22.75;;;;;11.16;70.73;103296.75;5083330;27;61831;-76
2021/12/18 09:09:06;;;;;;;;;38.75;27.75;;;;;11.18;70.72;103291.59;5083519;28;61940;-76
2021/12/18 09:11:33;;;;;;;;;32.25;24.25;;;;;11.24;70.50;103294.75;5082034;27;61796;-76
2021/12/18 09:13:58;;;;;;;;;32.00;26.50;;;;;11.26;70.75;103291.44;5082172;27;61892;-76
2021/12/18 09:16:23;;;;;;;;;29.00;26.25;;;;;11.30;70.34;103292.63;5082901;27;61960;-75
2021/12/18 09:18:49;;;;;;;;;37.25;26.75;;;;;11.26;69.77;103280.91;5082640;27;61855;-74
2021/12/18 09:21:14;;;;;;;;;31.50;21.75;;;;;11.21;70.13;103284.00;5082100;27;61953;-75
2021/12/18 09:23:40;;;;;;;;;29.00;26.00;;;;;11.26;70.42;103283.53;5082532;27;61750;-74
2021/12/18 09:26:05;;;;;;;;;31.00;20.00;;;;;11.30;70.08;103275.94;5081277;27;61869;-73
2021/12/18 09:28:31;;;;;;;;;44.00;29.00;;;;;11.38;69.92;103269.59;5081194;27;61837;-74
2021/12/18 09:30:57;;;;;;;;;43.50;28.50;;;;;11.42;69.88;103271.69;5078651;28;63827;-73
2021/12/18 09:33:22;;;;;;;;;36.50;30.50;;;;;11.50;70.04;103269.66;5080734;27;61857;-73
2021/12/18 09:35:48;;;;;;;;;29.75;24.25;;;;;11.54;69.77;103267.38;5081217;27;62309;-74
2021/12/18 09:38:13;;;;;;;;;36.75;28.75;;;;;11.56;69.68;103263.16;5097132;27;61777;-73
2021/12/18 09:40:39;;;;;;;;;40.50;32.50;;;;;11.60;69.41;103265.25;5080445;27;62242;-73
2021/12/18 09:43:05;;;;;;;;;30.50;29.50;;;;;11.66;69.79;103264.84;5081359;27;61991;-74
2021/12/18 09:45:30;;;;;;;;;47.25;34.00;;;;;11.71;69.34;103276.63;5082326;28;62213;-73
2021/12/18 09:47:57;;;;;;;;;41.75;33.25;;;;;11.75;69.31;103272.53;5082395;28;62063;-73
2021/12/18 09:50:25;;;;;;;;;54.75;40.00;;;;;11.80;69.18;103273.81;5080622;28;63893;-73
2021/12/18 09:52:51;;;;;;;;;42.50;31.75;;;;;11.83;69.25;103274.06;5082385;27;61713;-73
2021/12/18 09:55:18;;;;;;;;;50.75;38.00;;;;;11.89;68.99;103282.50;5082091;27;61892;-74
2021/12/18 09:57:44;;;;;;;;;40.75;31.00;;;;;11.97;69.00;103276.09;5082065;28;62151;-73
2021/12/18 10:00:17;;;;;;;;;41.25;29.00;;;;;12.02;69.04;103268.59;5079828;28;62093;-74
2021/12/18 10:02:43;;;;;;;;;32.25;25.50;;;;;12.05;68.32;103271.44;5094587;27;62169;-73
2021/12/18 10:05:25;;;;;;;;;44.50;32.75;;;;;12.04;68.32;103270.53;5081610;27;61919;-73
2021/12/18 10:08:14;;;;;;;;;33.75;28.75;;;;;12.14;68.50;103269.53;5082175;28;61813;-73
2021/12/18 10:11:02;;;;;;;;;36.00;33.00;;;;;12.23;68.07;103262.34;5081319;27;61845;-74
2021/12/18 10:13:28;;;;;;;;;39.50;33.75;;;;;12.30;67.65;103260.16;5080777;28;61881;-74
2021/12/18 10:16:11;;;;;;;;;36.50;31.00;;;;;12.40;67.46;103258.41;5081309;27;61877;-74
2021/12/18 10:18:37;;;;;;;;;37.00;19.75;;;;;12.46;67.01;103261.47;5082131;27;61862;-73
2021/12/18 10:21:13;;;;;;;;;39.75;27.00;;;;;12.53;66.85;103254.03;5081396;28;62915;-74
2021/12/18 10:23:41;;;;;;;;;41.50;33.00;;;;;12.63;66.77;103256.56;5081016;28;61893;-73
2021/12/18 10:26:07;;;;;;;;;41.00;31.25;;;;;12.64;66.56;103258.44;5081476;28;61755;-74
2021/12/18 10:28:45;;;;;;;;;35.50;30.50;;;;;12.71;67.36;103251.91;5082190;27;61962;-74
2021/12/18 10:31:11;;;;;;;;;28.50;27.00;;;;;12.69;66.27;103249.13;5080245;27;61804;-74
2021/12/18 10:33:37;;;;;;;;;35.50;33.00;;;;;12.77;66.59;103252.34;5082074;27;62104;-73
2021/12/18 10:36:03;;;;;;;;;40.00;35.25;;;;;12.83;66.25;103239.63;5081623;27;62062;-74
2021/12/18 10:38:39;;;;;;;;;36.50;29.75;;;;;12.92;66.30;103244.66;5080694;28;62019;-74
2021/12/18 10:41:27;;;;;;;;;46.00;30.50;;;;;13.02;66.22;103242.81;5081307;27;61927;-73
2021/12/18 10:43:57;;;;;;;;;35.75;30.50;;;;;13.06;65.69;103230.78;5081338;27;61833;-73
2021/12/18 10:46:23;;;;;;;;;40.00;29.75;;;;;13.12;65.29;103233.88;5081315;27;61911;-74
2021/12/18 10:48:56;;;;;;;;;35.75;30.50;;;;;13.20;65.50;103234.44;5082037;28;61855;-74
2021/12/18 10:51:23;;;;;;;;;27.00;22.00;;;;;13.21;65.34;103228.34;5081192;28;62871;-74
2021/12/18 10:53:49;;;;;;;;;38.25;31.00;;;;;13.29;65.49;103233.41;5079948;27;61797;-73
2021/12/18 10:56:15;;;;;;;;;37.50;33.25;;;;;13.28;65.24;103228.97;5079086;28;61872;-73
2021/12/18 10:58:40;;;;;;;;;35.00;29.00;;;;;13.38;65.63;103224.34;5078749;28;62213;-75
2021/12/18 11:01:09;;;;;;;;;36.25;29.50;;;;;13.45;64.87;103227.53;5079325;27;62406;-75
2021/12/18 11:03:43;;;;;;;;;25.25;24.00;;;;;13.49;64.45;103219.00;5080656;27;61900;-74
2021/12/18 11:06:11;;;;;;;;;42.25;35.00;;;;;13.54;63.82;103223.72;5080996;27;61738;-74
2021/12/18 11:08:57;;;;;;;;;35.00;30.50;;;;;13.62;64.65;103212.88;5079711;28;62126;-74
2021/12/18 11:14:10;;;;;;;;;33.75;27.00;;;;;13.80;63.45;103209.75;5078060;28;61984;-75
2021/12/18 11:16:37;;;;;;;;;40.00;30.75;;;;;13.85;62.71;103210.97;5079928;27;61839;-74
2021/12/18 11:19:12;;;;;;;;;29.50;23.50;;;;;13.94;63.45;103208.97;5080871;28;61731;-75
2021/12/18 11:21:39;;;;;;;;;29.75;25.00;;;;;14.03;61.97;103201.69;5076494;28;62019;-74
2021/12/18 11:24:07;;;;;;;;;32.50;29.25;;;;;14.15;63.33;103209.53;5081639;28;62130;-74
2021/12/18 11:26:41;;;;;;;;;36.00;26.50;;;;;14.29;63.00;103202.56;5084511;27;62272;-74
2021/12/18 11:29:18;;;;;;;;;39.75;30.00;;;;;14.42;62.18;103205.22;5084493;28;61880;-74
2021/12/18 11:31:46;;;;;;;;;38.50;30.25;;;;;14.53;62.49;103203.31;5083909;28;61779;-75
2021/12/18 11:34:12;;;;;;;;;33.25;23.25;;;;;14.50;60.11;103197.78;5084204;27;62192;-73
2021/12/18 11:36:40;;;;;;;;;33.75;24.50;;;;;14.52;61.29;103194.47;5083906;27;62027;-74
2021/12/18 11:39:06;;;;;;;;;33.75;26.25;;;;;14.70;60.78;103196.53;5084523;28;61804;-74
2021/12/18 11:41:31;;;;;;;;;24.25;22.00;;;;;14.83;60.68;103195.63;5083920;28;61896;-74
2021/12/18 11:43:57;;;;;;;;;34.25;25.75;;;;;14.99;59.38;103192.22;5084135;28;61893;-74
2021/12/18 11:46:37;;;;;;;;;30.25;23.50;;;;;15.10;61.72;103192.13;5084171;28;61984;-74
2021/12/18 11:49:10;;;;;;;;;30.25;21.75;;;;;15.22;59.37;103183.16;5084219;28;61908;-75
2021/12/18 11:51:37;;;;;;;;;30.50;23.50;;;;;15.32;59.16;103180.28;5081943;27;61728;-74
2021/12/18 11:54:06;;;;;;;;;27.00;22.75;;;;;15.48;59.69;103190.09;5084025;28;61933;-75
2021/12/18 11:56:48;;;;;;;;;29.75;22.50;;;;;15.61;59.75;103171.50;5083565;27;61792;-74